Time;durP1;ratioP1;P1;durP2;ratioP2;P2;SDS_P1;SDS_P2;PMS_P1;PMS_P2;Temp;Humidity;BMP_temperature;BMP_pressure;BME280_temperature;BME280_humidity;BME280_pressure;Samples;Min_cycle;Max_cycle;Signal;HPM_P1;HPM_P2
2023/05/20 00:01:39;;;;;;;1.90;1.80;;;;;;;;;;5139113;28;20218;-69
2023/05/20 00:04:06;;;;;;;1.73;1.63;;;;;;;;;;5138675;28;20218;-69
2023/05/20 00:06:34;;;;;;;1.98;1.63;;;;;;;;;;5138855;28;20241;-69
2023/05/20 00:09:03;;;;;;;1.90;1.80;;;;;;;;;;5138836;28;20468;-69
2023/05/20 00:11:31;;;;;;;1.85;1.75;;;;;;;;;;5138787;28;20198;-69
2023/05/20 00:13:58;;;;;;;1.90;1.80;;;;;;;;;;5138774;28;20246;-69
2023/05/20 00:16:25;;;;;;;1.70;1.60;;;;;;;;;;5138876;28;20199;-70
2023/05/20 00:18:53;;;;;;;1.83;1.73;;;;;;;;;;5139022;28;20646;-70
2023/05/20 00:21:20;;;;;;;1.52;1.42;;;;;;;;;;5138434;28;20213;-69
2023/05/20 00:23:48;;;;;;;1.80;1.70;;;;;;;;;;5141570;27;20247;-69
2023/05/20 00:26:17;;;;;;;2.80;1.83;;;;;;;;;;5142477;27;20246;-69
2023/05/20 00:28:44;;;;;;;1.98;1.88;;;;;;;;;;5142058;27;20241;-69
2023/05/20 00:31:12;;;;;;;1.77;1.67;;;;;;;;;;5142756;27;20202;-69
2023/05/20 00:33:40;;;;;;;2.67;1.73;;;;;;;;;;5142277;27;20206;-70
2023/05/20 00:36:07;;;;;;;2.05;1.92;;;;;;;;;;5142274;27;20653;-69
2023/05/20 00:38:35;;;;;;;1.90;1.80;;;;;;;;;;5142539;27;20202;-70
2023/05/20 00:41:02;;;;;;;1.90;1.80;;;;;;;;;;5142422;27;20213;-68
2023/05/20 00:43:31;;;;;;;2.00;1.90;;;;;;;;;;5142524;27;20279;-69
2023/05/20 00:45:58;;;;;;;2.10;1.90;;;;;;;;;;5141376;27;20541;-69
2023/05/20 00:48:26;;;;;;;1.77;1.67;;;;;;;;;;5142220;27;20202;-69
2023/05/20 00:50:53;;;;;;;1.80;1.70;;;;;;;;;;5142174;27;20202;-69
2023/05/20 00:53:21;;;;;;;1.90;1.80;;;;;;;;;;5141799;27;20214;-69
2023/05/20 00:55:49;;;;;;;1.80;1.70;;;;;;;;;;5141971;27;20198;-69
2023/05/20 00:58:16;;;;;;;1.98;1.88;;;;;;;;;;5142011;27;20209;-68
2023/05/20 01:00:45;;;;;;;1.80;1.70;;;;;;;;;;5142138;27;20483;-69
2023/05/20 01:03:13;;;;;;;1.67;1.58;;;;;;;;;;5142079;27;20198;-68
2023/05/20 01:05:40;;;;;;;2.00;1.88;;;;;;;;;;5141970;27;20226;-69
2023/05/20 01:08:08;;;;;;;1.90;1.80;;;;;;;;;;5142033;27;20207;-69
2023/05/20 01:10:37;;;;;;;1.90;1.80;;;;;;;;;;5142073;27;20202;-69
2023/05/20 01:13:07;;;;;;;1.70;1.60;;;;;;;;;;5141468;27;20203;-69
2023/05/20 01:15:35;;;;;;;2.03;1.83;;;;;;;;;;5141906;27;20616;-71
2023/05/20 01:18:04;;;;;;;2.05;1.85;;;;;;;;;;5141914;27;20206;-69
2023/05/20 01:20:32;;;;;;;1.80;1.70;;;;;;;;;;5141620;27;20223;-71
2023/05/20 01:23:01;;;;;;;1.80;1.70;;;;;;;;;;5141523;27;20202;-69
2023/05/20 01:25:28;;;;;;;1.70;1.60;;;;;;;;;;5141969;27;20226;-68
2023/05/20 01:27:57;;;;;;;2.00;1.90;;;;;;;;;;5141399;27;20238;-70
2023/05/20 01:30:27;;;;;;;1.63;1.52;;;;;;;;;;5141361;27;20213;-70
2023/05/20 01:32:58;;;;;;;2.03;1.80;;;;;;;;;;5141467;27;20267;-70
2023/05/20 01:35:25;;;;;;;2.03;1.92;;;;;;;;;;5140126;27;20209;-70
2023/05/20 01:37:53;;;;;;;1.88;1.77;;;;;;;;;;5140756;27;20202;-70
2023/05/20 01:40:22;;;;;;;1.88;1.77;;;;;;;;;;5141715;27;20202;-70
2023/05/20 01:42:51;;;;;;;1.85;1.75;;;;;;;;;;5140787;27;20202;-69
2023/05/20 01:45:19;;;;;;;1.70;1.60;;;;;;;;;;5141266;27;20249;-69
2023/05/20 01:47:47;;;;;;;1.90;1.80;;;;;;;;;;5141456;27;20524;-69
2023/05/20 01:50:14;;;;;;;1.90;1.80;;;;;;;;;;5141098;27;20304;-69
2023/05/20 01:52:42;;;;;;;2.00;1.90;;;;;;;;;;5141014;27;20202;-70
2023/05/20 01:55:09;;;;;;;1.70;1.60;;;;;;;;;;5141127;27;20206;-69
2023/05/20 01:57:38;;;;;;;1.88;1.77;;;;;;;;;;5141259;27;20202;-69
2023/05/20 02:00:06;;;;;;;1.80;1.70;;;;;;;;;;5140818;27;20202;-69
2023/05/20 02:02:33;;;;;;;2.10;2.00;;;;;;;;;;5140739;27;20221;-69
2023/05/20 02:05:01;;;;;;;2.17;2.08;;;;;;;;;;5140659;27;20213;-69
2023/05/20 02:07:28;;;;;;;1.85;1.75;;;;;;;;;;5141115;27;20202;-69
2023/05/20 02:09:55;;;;;;;2.13;2.03;;;;;;;;;;5140413;27;20198;-69
2023/05/20 02:12:23;;;;;;;1.90;1.80;;;;;;;;;;5140623;27;20289;-69
2023/05/20 02:14:52;;;;;;;2.03;1.92;;;;;;;;;;5140571;27;20586;-69
2023/05/20 02:17:19;;;;;;;2.20;2.10;;;;;;;;;;5140689;27;20206;-69
2023/05/20 02:19:47;;;;;;;2.00;1.90;;;;;;;;;;5140356;27;20214;-69
2023/05/20 02:22:14;;;;;;;1.92;1.83;;;;;;;;;;5140564;27;20202;-69
2023/05/20 02:24:42;;;;;;;1.98;1.88;;;;;;;;;;5140543;27;20202;-68
2023/05/20 02:27:09;;;;;;;1.90;1.80;;;;;;;;;;5140007;27;20386;-71
2023/05/20 02:29:37;;;;;;;1.85;1.75;;;;;;;;;;5140731;27;20208;-69
2023/05/20 02:32:06;;;;;;;2.05;1.95;;;;;;;;;;5140247;27;20210;-70
2023/05/20 02:34:33;;;;;;;1.90;1.80;;;;;;;;;;5140195;27;20218;-71
2023/05/20 02:37:01;;;;;;;1.90;1.80;;;;;;;;;;5139888;27;20225;-69
2023/05/20 02:39:28;;;;;;;1.88;1.77;;;;;;;;;;5139544;27;20218;-69
2023/05/20 02:41:56;;;;;;;1.85;1.75;;;;;;;;;;5140409;27;20487;-69
2023/05/20 02:44:23;;;;;;;2.00;1.80;;;;;;;;;;5140021;27;20668;-69
2023/05/20 02:46:51;;;;;;;1.90;1.80;;;;;;;;;;5139255;27;20226;-69
2023/05/20 02:49:19;;;;;;;2.10;1.90;;;;;;;;;;5140412;27;20202;-68
2023/05/20 02:51:47;;;;;;;2.00;1.90;;;;;;;;;;5139911;27;20202;-70
2023/05/20 02:54:15;;;;;;;2.00;1.90;;;;;;;;;;5140041;27;20264;-69
2023/05/20 02:56:42;;;;;;;1.88;1.77;;;;;;;;;;5139524;27;20660;-69
2023/05/20 02:59:09;;;;;;;2.00;1.90;;;;;;;;;;5139929;27;20213;-71
2023/05/20 03:01:39;;;;;;;2.15;2.05;;;;;;;;;;5139243;27;20210;-70
2023/05/20 03:04:06;;;;;;;2.35;2.20;;;;;;;;;;5139701;27;20213;-69
2023/05/20 03:06:37;;;;;;;1.90;1.80;;;;;;;;;;5139365;27;20225;-70
2023/05/20 03:09:04;;;;;;;1.90;1.80;;;;;;;;;;5139235;27;20208;-69
2023/05/20 03:11:32;;;;;;;2.38;2.17;;;;;;;;;;5139377;27;20212;-69
2023/05/20 03:13:59;;;;;;;2.20;2.00;;;;;;;;;;5139353;27;20202;-71
2023/05/20 03:16:26;;;;;;;1.98;1.83;;;;;;;;;;5139815;27;20206;-71
2023/05/20 03:18:54;;;;;;;2.00;1.90;;;;;;;;;;5138997;27;20213;-69
2023/05/20 03:21:22;;;;;;;2.05;1.95;;;;;;;;;;5139313;27;20578;-68
2023/05/20 03:23:51;;;;;;;1.95;1.85;;;;;;;;;;5139355;27;20202;-69
2023/05/20 03:26:18;;;;;;;2.03;1.92;;;;;;;;;;5138562;27;20240;-70
2023/05/20 03:28:46;;;;;;;1.92;1.83;;;;;;;;;;5138914;27;20252;-70
2023/05/20 03:31:13;;;;;;;2.00;1.90;;;;;;;;;;5139306;27;20206;-68
2023/05/20 03:33:41;;;;;;;2.10;2.00;;;;;;;;;;5139197;27;20217;-69
2023/05/20 03:36:08;;;;;;;2.50;2.30;;;;;;;;;;5139124;27;20190;-69
2023/05/20 03:38:35;;;;;;;2.40;2.20;;;;;;;;;;5139153;27;20202;-69
2023/05/20 03:41:04;;;;;;;2.00;1.90;;;;;;;;;;5139269;27;20601;-69
2023/05/20 03:43:31;;;;;;;2.00;1.90;;;;;;;;;;5138992;27;20203;-69
2023/05/20 03:45:59;;;;;;;1.88;1.77;;;;;;;;;;5138847;28;20232;-69
2023/05/20 03:48:27;;;;;;;1.98;1.88;;;;;;;;;;5139479;28;20209;-69
2023/05/20 03:50:54;;;;;;;2.40;2.20;;;;;;;;;;5138738;28;20202;-69
2023/05/20 03:53:21;;;;;;;1.95;1.85;;;;;;;;;;5138858;28;20592;-69
2023/05/20 03:55:49;;;;;;;2.20;2.10;;;;;;;;;;5138920;28;20213;-69
2023/05/20 03:58:19;;;;;;;2.10;2.00;;;;;;;;;;5140891;27;20288;-69
2023/05/20 04:00:47;;;;;;;1.98;1.88;;;;;;;;;;5143545;27;20240;-69
2023/05/20 04:03:15;;;;;;;2.10;2.00;;;;;;;;;;5142824;27;20217;-70
2023/05/20 04:05:42;;;;;;;2.30;2.10;;;;;;;;;;5142903;27;20201;-69
2023/05/20 04:08:12;;;;;;;2.20;2.10;;;;;;;;;;5142890;27;20213;-69
2023/05/20 04:10:42;;;;;;;2.22;2.10;;;;;;;;;;5142880;27;20202;-70
2023/05/20 04:13:09;;;;;;;2.30;2.10;;;;;;;;;;5142767;27;20202;-70
2023/05/20 04:15:38;;;;;;;2.15;2.05;;;;;;;;;;5142683;27;20210;-71
2023/05/20 04:18:06;;;;;;;2.00;1.90;;;;;;;;;;5142773;27;20594;-70
2023/05/20 04:20:33;;;;;;;2.38;2.17;;;;;;;;;;5142929;27;20202;-69
2023/05/20 04:23:00;;;;;;;2.40;2.30;;;;;;;;;;5142876;27;20485;-69
2023/05/20 04:25:27;;;;;;;2.45;2.25;;;;;;;;;;5142951;27;20194;-71
2023/05/20 04:27:56;;;;;;;2.13;2.03;;;;;;;;;;5142092;27;20630;-69
2023/05/20 04:30:24;;;;;;;2.20;2.10;;;;;;;;;;5142677;27;20202;-70
2023/05/20 04:32:53;;;;;;;2.15;2.05;;;;;;;;;;5142846;27;20500;-70
2023/05/20 04:35:20;;;;;;;2.45;2.30;;;;;;;;;;5142187;27;20206;-68
2023/05/20 04:37:48;;;;;;;2.40;2.20;;;;;;;;;;5142614;27;20198;-71
2023/05/20 04:40:15;;;;;;;2.75;2.55;;;;;;;;;;5142434;27;20465;-70
2023/05/20 04:42:43;;;;;;;2.40;2.22;;;;;;;;;;5142277;27;20201;-70
2023/05/20 04:45:12;;;;;;;2.63;2.42;;;;;;;;;;5142179;27;20206;-71
2023/05/20 04:47:40;;;;;;;2.63;2.42;;;;;;;;;;5141796;27;20226;-70
2023/05/20 04:50:10;;;;;;;2.50;2.30;;;;;;;;;;5142147;27;20202;-70
2023/05/20 04:52:37;;;;;;;2.38;2.17;;;;;;;;;;5142277;27;20255;-71
2023/05/20 04:55:05;;;;;;;2.10;2.00;;;;;;;;;;5142053;27;20202;-70
2023/05/20 04:57:34;;;;;;;2.22;2.13;;;;;;;;;;5141638;27;20222;-70
2023/05/20 05:00:01;;;;;;;2.58;2.40;;;;;;;;;;5142130;27;20650;-70
2023/05/20 05:02:29;;;;;;;2.67;2.47;;;;;;;;;;5141819;27;20505;-70
2023/05/20 05:04:56;;;;;;;2.53;2.33;;;;;;;;;;5141911;27;20600;-70
2023/05/20 05:07:25;;;;;;;2.70;2.50;;;;;;;;;;5141508;27;20233;-70
2023/05/20 05:09:52;;;;;;;2.72;2.53;;;;;;;;;;5140466;27;20202;-70
2023/05/20 05:12:20;;;;;;;2.60;2.40;;;;;;;;;;5141387;27;20220;-70
2023/05/20 05:14:47;;;;;;;2.60;2.40;;;;;;;;;;5141551;27;20709;-70
2023/05/20 05:17:14;;;;;;;2.47;2.28;;;;;;;;;;5141696;27;20198;-71
2023/05/20 05:19:42;;;;;;;2.78;2.58;;;;;;;;;;5141091;27;20214;-70
2023/05/20 05:22:09;;;;;;;2.60;2.40;;;;;;;;;;5141010;27;20202;-70
2023/05/20 05:24:39;;;;;;;2.55;2.35;;;;;;;;;;5141191;27;20214;-70
2023/05/20 05:27:06;;;;;;;2.78;2.58;;;;;;;;;;5140441;27;20232;-70
2023/05/20 05:29:34;;;;;;;2.70;2.50;;;;;;;;;;5141494;27;20203;-70
2023/05/20 05:32:01;;;;;;;2.78;2.58;;;;;;;;;;5141080;27;20637;-70
2023/05/20 05:34:28;;;;;;;2.53;2.33;;;;;;;;;;5141011;27;20206;-70
2023/05/20 05:36:56;;;;;;;2.50;2.30;;;;;;;;;;5141319;27;20225;-70
2023/05/20 05:39:23;;;;;;;2.42;2.22;;;;;;;;;;5141244;27;20202;-70
2023/05/20 05:41:53;;;;;;;2.53;2.33;;;;;;;;;;5141314;27;20450;-70
2023/05/20 05:44:20;;;;;;;2.72;2.55;;;;;;;;;;5141021;27;20222;-70
2023/05/20 05:46:47;;;;;;;2.72;2.53;;;;;;;;;;5141042;27;20651;-70
2023/05/20 05:49:15;;;;;;;2.65;2.45;;;;;;;;;;5140901;27;20194;-70
2023/05/20 05:51:42;;;;;;;2.55;2.35;;;;;;;;;;5140606;27;20213;-70
2023/05/20 05:54:10;;;;;;;2.65;2.45;;;;;;;;;;5140219;27;20206;-70
2023/05/20 05:56:37;;;;;;;2.55;2.35;;;;;;;;;;5140896;27;20554;-70
2023/05/20 05:59:06;;;;;;;2.65;2.45;;;;;;;;;;5141036;27;20202;-69
2023/05/20 06:01:33;;;;;;;2.53;2.35;;;;;;;;;;5140817;27;20202;-70
2023/05/20 06:04:01;;;;;;;3.03;2.83;;;;;;;;;;5140740;27;20213;-70
2023/05/20 06:06:28;;;;;;;2.80;2.60;;;;;;;;;;5140498;27;20613;-70
2023/05/20 06:08:56;;;;;;;2.60;2.40;;;;;;;;;;5140355;27;20470;-70
2023/05/20 06:11:23;;;;;;;2.80;2.60;;;;;;;;;;5139746;27;20342;-70
2023/05/20 06:13:51;;;;;;;2.67;2.47;;;;;;;;;;5139885;27;20203;-69
2023/05/20 06:16:19;;;;;;;2.72;2.53;;;;;;;;;;5140447;27;20213;-70
2023/05/20 06:18:48;;;;;;;2.60;2.40;;;;;;;;;;5140792;27;20198;-70
2023/05/20 06:21:16;;;;;;;2.63;2.42;;;;;;;;;;5139860;27;20625;-70
2023/05/20 06:23:43;;;;;;;2.80;2.60;;;;;;;;;;5139834;27;20202;-70
2023/05/20 06:26:11;;;;;;;2.70;2.50;;;;;;;;;;5140180;27;20209;-70
2023/05/20 06:28:39;;;;;;;2.95;2.75;;;;;;;;;;5139887;27;20223;-70
2023/05/20 06:31:07;;;;;;;2.88;2.67;;;;;;;;;;5139716;27;20740;-69
2023/05/20 06:33:36;;;;;;;2.63;2.42;;;;;;;;;;5139862;27;20202;-70
2023/05/20 06:36:04;;;;;;;3.05;2.83;;;;;;;;;;5139952;27;20241;-70
2023/05/20 06:38:31;;;;;;;2.70;2.50;;;;;;;;;;5139137;27;20306;-70
2023/05/20 06:40:59;;;;;;;2.78;2.58;;;;;;;;;;5139556;27;20209;-70
2023/05/20 06:43:26;;;;;;;2.90;2.70;;;;;;;;;;5139534;27;20202;-70
2023/05/20 06:45:54;;;;;;;2.83;2.63;;;;;;;;;;5139592;27;20202;-70
2023/05/20 06:48:21;;;;;;;3.00;2.80;;;;;;;;;;5139642;27;20222;-70
2023/05/20 06:50:50;;;;;;;3.10;2.90;;;;;;;;;;5138958;27;20202;-70
2023/05/20 06:53:17;;;;;;;3.60;3.30;;;;;;;;;;5139033;27;20202;-69
2023/05/20 06:55:45;;;;;;;3.10;2.90;;;;;;;;;;5138628;27;20263;-70
2023/05/20 06:58:12;;;;;;;3.05;2.85;;;;;;;;;;5139373;27;20491;-70
2023/05/20 07:00:40;;;;;;;3.10;2.90;;;;;;;;;;5138273;27;20213;-69
2023/05/20 07:03:07;;;;;;;3.35;3.10;;;;;;;;;;5138391;27;20601;-70
2023/05/20 07:05:35;;;;;;;3.33;3.13;;;;;;;;;;5138730;27;20210;-69
2023/05/20 07:08:03;;;;;;;3.17;2.97;;;;;;;;;;5139121;27;20245;-70
2023/05/20 07:10:31;;;;;;;3.05;2.85;;;;;;;;;;5139279;27;20608;-70
2023/05/20 07:12:58;;;;;;;3.38;3.13;;;;;;;;;;5139485;27;20499;-70
2023/05/20 07:15:26;;;;;;;3.25;3.00;;;;;;;;;;5138667;27;20492;-69
2023/05/20 07:17:53;;;;;;;3.35;3.15;;;;;;;;;;5138946;27;20205;-70
2023/05/20 07:20:21;;;;;;;3.60;3.30;;;;;;;;;;5138929;27;20202;-69
2023/05/20 07:22:49;;;;;;;3.67;3.38;;;;;;;;;;5138306;27;20233;-69
2023/05/20 07:25:19;;;;;;;3.33;3.03;;;;;;;;;;5138418;27;20272;-69
2023/05/20 07:27:46;;;;;;;3.42;3.22;;;;;;;;;;5137971;27;20233;-69
2023/05/20 07:30:13;;;;;;;3.25;3.05;;;;;;;;;;5138598;27;20255;-69
2023/05/20 07:32:41;;;;;;;3.50;3.20;;;;;;;;;;5138170;27;20223;-69
2023/05/20 07:35:08;;;;;;;3.30;3.10;;;;;;;;;;5138986;27;20202;-70
2023/05/20 07:37:36;;;;;;;3.42;3.17;;;;;;;;;;5138180;27;20202;-70
2023/05/20 07:40:04;;;;;;;3.30;3.03;;;;;;;;;;5138122;27;20202;-69
2023/05/20 07:42:33;;;;;;;3.65;3.35;;;;;;;;;;5138723;27;20558;-70
2023/05/20 07:45:00;;;;;;;3.30;3.10;;;;;;;;;;5138196;27;20202;-70
2023/05/20 07:47:27;;;;;;;3.92;3.63;;;;;;;;;;5137835;28;20540;-70
2023/05/20 07:49:55;;;;;;;3.67;3.38;;;;;;;;;;5137989;28;20210;-70
2023/05/20 07:52:22;;;;;;;3.60;3.40;;;;;;;;;;5138242;28;20229;-70
2023/05/20 07:54:49;;;;;;;3.80;3.50;;;;;;;;;;5137666;28;20227;-70
2023/05/20 07:57:17;;;;;;;3.35;3.10;;;;;;;;;;5136706;28;20194;-70
2023/05/20 07:59:46;;;;;;;3.78;3.47;;;;;;;;;;5138559;28;20202;-70
2023/05/20 08:02:13;;;;;;;3.50;3.20;;;;;;;;;;5137175;28;20203;-70
2023/05/20 08:04:40;;;;;;;3.53;3.28;;;;;;;;;;5137574;28;20202;-70
2023/05/20 08:07:08;;;;;;;4.43;3.50;;;;;;;;;;5137833;28;20206;-69
2023/05/20 08:09:35;;;;;;;3.25;3.05;;;;;;;;;;5137824;28;20202;-70
2023/05/20 08:12:03;;;;;;;3.55;3.30;;;;;;;;;;5137697;28;20206;-70
2023/05/20 08:14:30;;;;;;;3.38;3.17;;;;;;;;;;5137413;28;20659;-70
2023/05/20 08:16:59;;;;;;;3.60;3.30;;;;;;;;;;5137508;28;20202;-69
2023/05/20 08:19:26;;;;;;;3.47;3.28;;;;;;;;;;5138672;28;20574;-69
2023/05/20 08:21:54;;;;;;;4.03;3.50;;;;;;;;;;5137918;28;20206;-70
2023/05/20 08:24:21;;;;;;;3.45;3.15;;;;;;;;;;5137319;28;20206;-69
2023/05/20 08:26:49;;;;;;;3.55;3.30;;;;;;;;;;5137099;28;20493;-70
2023/05/20 08:29:16;;;;;;;3.88;3.58;;;;;;;;;;5136938;28;20218;-69
2023/05/20 08:31:43;;;;;;;3.72;3.42;;;;;;;;;;5137253;28;20598;-69
2023/05/20 08:34:12;;;;;;;4.10;3.80;;;;;;;;;;5137458;28;20203;-70
2023/05/20 08:36:40;;;;;;;4.03;3.72;;;;;;;;;;5136630;28;20216;-70
2023/05/20 08:39:08;;;;;;;4.13;3.72;;;;;;;;;;5137443;28;20458;-70
2023/05/20 08:41:35;;;;;;;3.78;3.47;;;;;;;;;;5137157;28;20464;-70
2023/05/20 08:44:02;;;;;;;4.60;4.20;;;;;;;;;;5138675;27;20209;-70
2023/05/20 08:46:31;;;;;;;4.38;4.07;;;;;;;;;;5140006;27;20534;-70
2023/05/20 08:48:58;;;;;;;4.55;4.15;;;;;;;;;;5139845;27;20222;-70
2023/05/20 08:51:27;;;;;;;4.45;4.15;;;;;;;;;;5140509;27;20202;-70
2023/05/20 08:53:55;;;;;;;4.93;4.53;;;;;;;;;;5140651;27;20588;-70
2023/05/20 08:56:22;;;;;;;4.72;4.32;;;;;;;;;;5140133;27;20203;-70
2023/05/20 08:58:49;;;;;;;4.72;4.32;;;;;;;;;;5140585;27;20210;-70
2023/05/20 09:01:17;;;;;;;4.68;4.30;;;;;;;;;;5140274;27;20210;-70
2023/05/20 09:03:45;;;;;;;4.78;4.38;;;;;;;;;;5140557;27;20566;-70
2023/05/20 09:06:17;;;;;;;4.50;4.20;;;;;;;;;;5140313;27;20203;-69
2023/05/20 09:08:46;;;;;;;4.60;4.30;;;;;;;;;;5139985;27;20230;-70
2023/05/20 09:11:14;;;;;;;4.90;4.50;;;;;;;;;;5140324;27;20209;-70
2023/05/20 09:13:41;;;;;;;4.90;4.50;;;;;;;;;;5140588;27;20202;-69
2023/05/20 09:16:10;;;;;;;4.93;4.53;;;;;;;;;;5139372;27;20564;-69
2023/05/20 09:18:39;;;;;;;5.20;4.80;;;;;;;;;;5140018;27;20245;-70
2023/05/20 09:21:07;;;;;;;5.20;4.80;;;;;;;;;;5140268;27;20210;-69
2023/05/20 09:23:37;;;;;;;5.40;5.00;;;;;;;;;;5140048;27;20672;-70
2023/05/20 09:26:06;;;;;;;5.15;4.75;;;;;;;;;;5140106;27;20214;-70
2023/05/20 09:28:37;;;;;;;5.10;4.70;;;;;;;;;;5139336;27;20229;-70
2023/05/20 09:31:07;;;;;;;5.18;4.78;;;;;;;;;;5140472;27;20578;-69
2023/05/20 09:33:35;;;;;;;5.60;5.20;;;;;;;;;;5139115;27;20202;-69
2023/05/20 09:36:05;;;;;;;5.20;4.80;;;;;;;;;;5140363;27;20229;-70
2023/05/20 09:38:36;;;;;;;5.70;5.30;;;;;;;;;;5140069;27;20255;-70
2023/05/20 09:41:08;;;;;;;6.15;5.65;;;;;;;;;;5139492;27;20213;-70
2023/05/20 09:43:36;;;;;;;5.88;5.47;;;;;;;;;;5140092;27;20586;-70
2023/05/20 09:46:04;;;;;;;5.80;5.40;;;;;;;;;;5139420;27;20229;-70
2023/05/20 09:48:32;;;;;;;5.47;4.97;;;;;;;;;;5140067;27;20296;-72
2023/05/20 09:50:59;;;;;;;5.88;5.40;;;;;;;;;;5138861;27;20210;-70
2023/05/20 09:53:27;;;;;;;5.80;5.40;;;;;;;;;;5139939;27;20232;-70
2023/05/20 09:55:55;;;;;;;5.82;5.32;;;;;;;;;;5138784;27;20210;-69
2023/05/20 09:58:24;;;;;;;6.07;5.57;;;;;;;;;;5139807;27;20198;-70
2023/05/20 10:00:52;;;;;;;5.97;5.50;;;;;;;;;;5139711;27;20263;-70
2023/05/20 10:03:22;;;;;;;6.72;6.13;;;;;;;;;;5138236;27;20598;-69
2023/05/20 10:05:53;;;;;;;6.38;5.88;;;;;;;;;;5137444;27;20202;-69
2023/05/20 10:08:26;;;;;;;6.60;6.10;;;;;;;;;;5138327;27;20233;-69
2023/05/20 10:10:58;;;;;;;6.65;6.15;;;;;;;;;;5138896;27;20217;-69
2023/05/20 10:13:33;;;;;;;6.07;5.57;;;;;;;;;;5138929;27;20551;-69
2023/05/20 10:16:04;;;;;;;6.53;6.03;;;;;;;;;;5138194;27;20589;-69
2023/05/20 10:18:42;;;;;;;6.45;5.95;;;;;;;;;;5138899;27;20616;-71
2023/05/20 10:21:16;;;;;;;6.15;5.70;;;;;;;;;;5138743;27;20209;-69
2023/05/20 10:23:43;;;;;;;6.65;6.15;;;;;;;;;;5138572;27;20207;-70
2023/05/20 10:26:11;;;;;;;6.50;6.00;;;;;;;;;;5138437;27;20203;-70
2023/05/20 10:28:41;;;;;;;7.05;6.55;;;;;;;;;;5138138;27;20229;-69
2023/05/20 10:31:18;;;;;;;6.85;6.30;;;;;;;;;;5137992;27;20213;-70
2023/05/20 10:33:46;;;;;;;6.53;6.03;;;;;;;;;;5138352;27;20212;-69
2023/05/20 10:36:25;;;;;;;6.78;6.28;;;;;;;;;;5138007;27;20206;-69
2023/05/20 10:38:53;;;;;;;6.85;6.35;;;;;;;;;;5138259;27;20521;-70
2023/05/20 10:41:21;;;;;;;6.70;6.20;;;;;;;;;;5137746;27;20604;-69
2023/05/20 10:43:59;;;;;;;6.65;6.13;;;;;;;;;;5137463;27;20289;-70
2023/05/20 10:46:27;;;;;;;6.88;6.38;;;;;;;;;;5137956;27;20206;-69
2023/05/20 10:48:54;;;;;;;7.03;6.43;;;;;;;;;;5138287;27;20283;-69
2023/05/20 10:51:22;;;;;;;6.70;6.20;;;;;;;;;;5137049;27;20728;-69
2023/05/20 10:53:53;;;;;;;7.57;6.97;;;;;;;;;;5137504;27;20639;-69
2023/05/20 10:56:21;;;;;;;7.20;6.65;;;;;;;;;;5137196;27;20213;-69
2023/05/20 10:58:49;;;;;;;7.22;6.63;;;;;;;;;;5137055;27;20203;-69
2023/05/20 11:01:18;;;;;;;7.53;6.93;;;;;;;;;;5137238;27;20208;-69
2023/05/20 11:03:47;;;;;;;7.80;7.20;;;;;;;;;;5135880;27;20206;-70
2023/05/20 11:06:14;;;;;;;7.32;6.75;;;;;;;;;;5136933;27;20198;-69
2023/05/20 11:08:42;;;;;;;7.35;6.75;;;;;;;;;;5136569;27;20225;-69
2023/05/20 11:11:11;;;;;;;7.75;7.15;;;;;;;;;;5137694;27;20210;-69
2023/05/20 11:13:38;;;;;;;6.88;6.38;;;;;;;;;;5137002;27;20194;-69
2023/05/20 11:16:06;;;;;;;7.35;6.75;;;;;;;;;;5136368;27;20198;-70
2023/05/20 11:18:35;;;;;;;7.00;6.47;;;;;;;;;;5136443;27;20190;-69
2023/05/20 11:21:02;;;;;;;7.32;6.72;;;;;;;;;;5136305;27;20202;-69
2023/05/20 11:23:30;;;;;;;7.47;6.88;;;;;;;;;;5136972;27;21044;-69
2023/05/20 11:25:58;;;;;;;7.47;6.88;;;;;;;;;;5137224;27;20574;-69
2023/05/20 11:28:26;;;;;;;7.68;7.10;;;;;;;;;;5136684;27;20238;-69
2023/05/20 11:30:54;;;;;;;7.78;7.18;;;;;;;;;;5136859;27;20209;-69
2023/05/20 11:33:21;;;;;;;7.65;7.05;;;;;;;;;;5137493;27;20293;-69
2023/05/20 11:35:50;;;;;;;7.57;6.97;;;;;;;;;;5136350;27;20233;-69
2023/05/20 11:38:18;;;;;;;7.25;6.65;;;;;;;;;;5136414;27;20620;-69
2023/05/20 11:40:46;;;;;;;7.35;6.75;;;;;;;;;;5135685;27;20206;-69
2023/05/20 11:43:13;;;;;;;7.22;6.63;;;;;;;;;;5135909;28;20230;-69
2023/05/20 11:45:42;;;;;;;7.75;7.15;;;;;;;;;;5136067;27;20275;-69
2023/05/20 11:48:10;;;;;;;7.53;6.93;;;;;;;;;;5136670;27;20194;-69
2023/05/20 11:50:39;;;;;;;7.43;6.82;;;;;;;;;;5135879;28;20205;-69
2023/05/20 11:53:09;;;;;;;7.85;7.25;;;;;;;;;;5135329;28;20201;-69
2023/05/20 11:55:45;;;;;;;7.30;6.70;;;;;;;;;;5136406;28;20214;-69
2023/05/20 11:58:12;;;;;;;7.05;6.55;;;;;;;;;;5136484;28;20208;-69
2023/05/20 12:00:40;;;;;;;7.60;7.00;;;;;;;;;;5135237;28;20202;-69
2023/05/20 12:03:07;;;;;;;8.38;7.72;;;;;;;;;;5136060;28;20225;-69
2023/05/20 12:05:35;;;;;;;7.22;6.63;;;;;;;;;;5135105;28;20202;-69
2023/05/20 12:08:02;;;;;;;7.70;7.10;;;;;;;;;;5136365;28;20202;-69
2023/05/20 12:10:31;;;;;;;7.35;6.75;;;;;;;;;;5136873;28;20225;-69
2023/05/20 12:12:59;;;;;;;7.57;6.97;;;;;;;;;;5135959;28;20578;-69
2023/05/20 12:15:26;;;;;;;7.05;6.45;;;;;;;;;;5136251;28;20198;-69
2023/05/20 12:17:54;;;;;;;7.47;6.88;;;;;;;;;;5135666;27;20202;-69
2023/05/20 12:20:22;;;;;;;7.93;7.32;;;;;;;;;;5140706;27;20198;-69
2023/05/20 12:22:50;;;;;;;8.10;7.50;;;;;;;;;;5139790;27;20203;-69
2023/05/20 12:25:18;;;;;;;7.65;7.05;;;;;;;;;;5140123;27;20209;-69
2023/05/20 12:27:47;;;;;;;7.93;7.32;;;;;;;;;;5139815;27;20637;-69
2023/05/20 12:30:16;;;;;;;7.40;6.90;;;;;;;;;;5139706;27;20326;-69
2023/05/20 12:32:45;;;;;;;7.30;6.70;;;;;;;;;;5121314;27;20205;-69
2023/05/20 12:35:12;;;;;;;7.57;6.97;;;;;;;;;;5139402;27;20690;-69
2023/05/20 12:37:41;;;;;;;8.32;7.70;;;;;;;;;;5139546;27;20573;-69
2023/05/20 12:40:10;;;;;;;8.00;7.30;;;;;;;;;;5139579;27;20259;-69
2023/05/20 12:42:37;;;;;;;7.70;7.15;;;;;;;;;;5138886;27;20251;-69
2023/05/20 12:45:06;;;;;;;8.30;7.70;;;;;;;;;;5139194;27;20210;-70
2023/05/20 12:47:34;;;;;;;7.30;6.80;;;;;;;;;;5138984;27;20206;-69
2023/05/20 12:50:02;;;;;;;7.60;7.00;;;;;;;;;;5139652;27;20214;-68
2023/05/20 12:52:29;;;;;;;7.90;7.30;;;;;;;;;;5139106;27;20198;-68
2023/05/20 12:54:57;;;;;;;7.93;7.22;;;;;;;;;;5139710;27;20194;-69
2023/05/20 12:57:25;;;;;;;8.27;7.60;;;;;;;;;;5138983;27;20225;-68
2023/05/20 12:59:52;;;;;;;8.18;7.50;;;;;;;;;;5139500;27;20191;-69
2023/05/20 13:02:21;;;;;;;7.82;7.22;;;;;;;;;;5139525;27;20203;-69
2023/05/20 13:04:48;;;;;;;8.02;7.43;;;;;;;;;;5139851;27;20202;-70
2023/05/20 13:07:16;;;;;;;8.45;7.75;;;;;;;;;;5139651;27;20233;-68
2023/05/20 13:09:44;;;;;;;8.05;7.45;;;;;;;;;;5139207;27;20621;-69
2023/05/20 13:12:12;;;;;;;8.05;7.45;;;;;;;;;;5139206;27;20202;-69
2023/05/20 13:14:40;;;;;;;8.07;7.47;;;;;;;;;;5138788;27;20194;-70
2023/05/20 13:17:07;;;;;;;7.70;6.97;;;;;;;;;;5139352;27;20229;-69
2023/05/20 13:19:36;;;;;;;7.80;7.20;;;;;;;;;;5140310;27;20290;-68
2023/05/20 13:22:04;;;;;;;7.65;7.05;;;;;;;;;;5139199;27;20301;-71
2023/05/20 13:24:32;;;;;;;8.15;7.55;;;;;;;;;;5139264;27;20214;-69
2023/05/20 13:27:00;;;;;;;7.85;7.25;;;;;;;;;;5138414;27;20213;-69
2023/05/20 13:29:27;;;;;;;7.70;7.10;;;;;;;;;;5139382;27;20278;-69
2023/05/20 13:31:54;;;;;;;7.97;7.32;;;;;;;;;;5137884;27;20207;-69
2023/05/20 13:34:22;;;;;;;8.48;7.78;;;;;;;;;;5138362;27;20484;-69
2023/05/20 13:36:51;;;;;;;7.88;7.28;;;;;;;;;;5138816;27;20566;-69
2023/05/20 13:39:18;;;;;;;8.43;7.82;;;;;;;;;;5138759;27;20194;-69
2023/05/20 13:41:46;;;;;;;7.88;7.28;;;;;;;;;;5139040;27;20202;-69
2023/05/20 13:44:13;;;;;;;8.07;7.40;;;;;;;;;;5138627;27;20228;-68
2023/05/20 13:46:40;;;;;;;7.85;7.25;;;;;;;;;;5136963;27;20202;-68
2023/05/20 13:49:08;;;;;;;8.38;7.78;;;;;;;;;;5138286;27;20728;-68
2023/05/20 13:51:35;;;;;;;7.82;7.22;;;;;;;;;;5138239;27;20610;-68
2023/05/20 13:54:05;;;;;;;8.25;7.55;;;;;;;;;;5138657;27;20206;-69
2023/05/20 13:56:32;;;;;;;8.00;7.30;;;;;;;;;;5138206;27;20240;-70
2023/05/20 13:58:59;;;;;;;8.10;7.50;;;;;;;;;;5137572;27;20198;-68
2023/05/20 14:01:28;;;;;;;7.50;7.00;;;;;;;;;;5136553;27;20624;-68
2023/05/20 14:03:55;;;;;;;8.40;7.80;;;;;;;;;;5136706;27;20202;-68
2023/05/20 14:06:23;;;;;;;7.70;7.10;;;;;;;;;;5138025;27;20490;-69
2023/05/20 14:08:50;;;;;;;8.25;7.47;;;;;;;;;;5138104;27;20202;-70
2023/05/20 14:11:20;;;;;;;7.72;7.13;;;;;;;;;;5137474;27;20210;-69
2023/05/20 14:13:48;;;;;;;7.40;6.90;;;;;;;;;;5137236;27;20507;-69
2023/05/20 14:16:15;;;;;;;7.70;7.10;;;;;;;;;;5137716;27;20206;-69
2023/05/20 14:18:43;;;;;;;8.43;7.75;;;;;;;;;;5138244;27;20213;-69
2023/05/20 14:21:10;;;;;;;7.78;7.20;;;;;;;;;;5137564;27;20209;-69
2023/05/20 14:23:37;;;;;;;7.82;7.22;;;;;;;;;;5138556;27;20198;-69
2023/05/20 14:26:05;;;;;;;8.18;7.53;;;;;;;;;;5137923;27;20205;-69
2023/05/20 14:28:34;;;;;;;8.15;7.55;;;;;;;;;;5137896;27;20234;-69
2023/05/20 14:31:01;;;;;;;8.20;7.60;;;;;;;;;;5137022;27;20245;-69
2023/05/20 14:33:28;;;;;;;7.90;7.30;;;;;;;;;;5137756;27;20194;-69
2023/05/20 14:35:55;;;;;;;7.65;7.05;;;;;;;;;;5136944;27;20202;-69
2023/05/20 14:38:23;;;;;;;7.75;7.15;;;;;;;;;;5136804;27;20271;-69
2023/05/20 14:40:51;;;;;;;7.80;7.20;;;;;;;;;;5136879;27;20613;-69
2023/05/20 14:43:18;;;;;;;7.78;7.22;;;;;;;;;;5135700;27;20283;-69
2023/05/20 14:45:47;;;;;;;8.20;7.60;;;;;;;;;;5135999;27;20224;-69
2023/05/20 14:48:15;;;;;;;7.38;6.85;;;;;;;;;;5136827;27;20202;-69